Time;durP1;ratioP1;P1;durP2;ratioP2;P2;SDS_P1;SDS_P2;PMS_P1;PMS_P2;Temp;Humidity;BMP_temperature;BMP_pressure;BME280_temperature;BME280_humidity;BME280_pressure;Samples;Min_cycle;Max_cycle;Signal;HPM_P1;HPM_P2
2023/07/23 00:00:34;;;;;;;6.15;4.28;;;25.10;44.50;;;;;;5039224;28;20025;-66
2023/07/23 00:03:00;;;;;;;5.40;3.85;;;25.10;44.40;;;;;;5041662;28;20036;-65
2023/07/23 00:05:25;;;;;;;5.35;3.75;;;25.10;44.50;;;;;;5038195;28;20500;-66
2023/07/23 00:07:56;;;;;;;6.18;3.80;;;25.10;44.40;;;;;;5040430;28;20033;-65
2023/07/23 00:10:22;;;;;;;6.78;4.03;;;25.10;44.40;;;;;;5054919;28;20025;-66
2023/07/23 00:12:48;;;;;;;5.93;3.92;;;25.10;44.40;;;;;;5038118;28;20036;-66
2023/07/23 00:15:14;;;;;;;6.43;4.07;;;25.20;44.50;;;;;;5039502;28;20428;-65
2023/07/23 00:17:40;;;;;;;7.05;4.15;;;25.10;44.40;;;;;;5040037;28;20044;-66
2023/07/23 00:20:07;;;;;;;6.20;3.88;;;25.10;44.50;;;;;;5039330;28;20465;-65
2023/07/23 00:22:33;;;;;;;5.28;3.75;;;25.10;44.50;;;;;;5039858;28;20108;-66
2023/07/23 00:24:59;;;;;;;5.95;3.90;;;25.10;44.50;;;;;;5039515;28;20092;-66
2023/07/23 00:27:25;;;;;;;5.15;3.78;;;25.10;44.40;;;;;;5035322;28;20044;-66
2023/07/23 00:29:51;;;;;;;4.68;3.20;;;25.10;44.40;;;;;;5038165;28;20436;-66
2023/07/23 00:32:16;;;;;;;5.68;3.75;;;25.10;44.50;;;;;;5038107;28;20087;-66
2023/07/23 00:34:42;;;;;;;5.97;3.72;;;25.10;44.50;;;;;;5038364;28;20791;-66
2023/07/23 00:37:08;;;;;;;5.50;3.55;;;25.10;44.50;;;;;;5037845;28;20037;-66
2023/07/23 00:39:34;;;;;;;5.30;3.70;;;25.10;44.50;;;;;;5038198;28;20414;-66
2023/07/23 00:41:59;;;;;;;5.20;3.75;;;25.10;44.50;;;;;;5038190;28;20033;-66
2023/07/23 00:44:26;;;;;;;5.93;3.65;;;25.10;44.50;;;;;;5035844;28;20033;-65
2023/07/23 00:46:52;;;;;;;6.35;3.67;;;25.10;44.50;;;;;;5039009;28;20115;-66
2023/07/23 00:49:18;;;;;;;5.05;3.40;;;25.10;44.50;;;;;;5039886;28;20143;-66
2023/07/23 00:51:44;;;;;;;6.43;3.80;;;25.10;44.50;;;;;;5039718;28;20590;-66
2023/07/23 00:54:11;;;;;;;5.10;3.33;;;25.10;44.50;;;;;;5039144;28;20057;-66
2023/07/23 00:56:37;;;;;;;4.93;3.58;;;25.10;44.50;;;;;;5039002;28;20025;-66
2023/07/23 00:59:03;;;;;;;5.50;3.30;;;25.10;44.50;;;;;;5035163;28;20493;-65
2023/07/23 01:01:30;;;;;;;5.30;3.50;;;25.10;44.60;;;;;;5039537;28;20386;-65
2023/07/23 01:03:56;;;;;;;4.82;3.40;;;25.10;44.50;;;;;;5038973;28;20373;-65
2023/07/23 01:06:23;;;;;;;5.85;3.40;;;25.10;44.50;;;;;;5039437;28;20029;-65
2023/07/23 01:08:49;;;;;;;5.00;3.50;;;25.10;44.50;;;;;;5041029;28;20453;-66
2023/07/23 01:11:16;;;;;;;4.43;3.35;;;25.10;44.50;;;;;;5038745;28;20036;-66
2023/07/23 01:13:43;;;;;;;5.57;3.38;;;25.10;44.50;;;;;;5037660;28;20109;-65
2023/07/23 01:16:10;;;;;;;4.85;3.40;;;25.10;44.50;;;;;;5037805;28;20025;-66
2023/07/23 01:18:40;;;;;;;4.75;3.40;;;25.10;44.50;;;;;;5037492;28;20025;-65
2023/07/23 01:21:06;;;;;;;5.30;3.60;;;25.10;44.50;;;;;;5038522;28;20490;-66
2023/07/23 01:23:32;;;;;;;4.97;3.10;;;25.10;44.50;;;;;;5039414;28;20037;-65
2023/07/23 01:25:58;;;;;;;5.30;3.55;;;25.10;44.50;;;;;;5039093;28;20038;-66
2023/07/23 01:28:24;;;;;;;4.80;3.30;;;25.10;44.50;;;;;;5035804;28;20411;-65
2023/07/23 01:30:49;;;;;;;4.80;3.17;;;25.10;44.60;;;;;;5036969;28;20059;-65
2023/07/23 01:33:16;;;;;;;5.78;3.40;;;25.00;44.50;;;;;;5039222;28;20123;-66
2023/07/23 01:35:44;;;;;;;4.93;3.50;;;25.00;44.50;;;;;;5038197;28;20132;-66
2023/07/23 01:38:11;;;;;;;5.25;3.30;;;25.00;44.50;;;;;;5038467;28;20017;-66
2023/07/23 01:40:37;;;;;;;5.00;3.08;;;25.00;44.50;;;;;;5038119;28;20477;-65
2023/07/23 01:43:03;;;;;;;4.70;3.00;;;25.10;44.60;;;;;;5036432;28;20386;-65
2023/07/23 01:45:29;;;;;;;5.43;3.33;;;25.00;44.50;;;;;;5038955;28;20388;-66
2023/07/23 01:47:55;;;;;;;5.07;3.42;;;25.00;45.00;;;;;;5040723;28;20473;-66
2023/07/23 01:50:21;;;;;;;5.10;3.63;;;25.00;44.50;;;;;;5037779;28;20021;-66
2023/07/23 01:52:47;;;;;;;4.88;3.08;;;25.00;44.50;;;;;;5038640;28;20025;-65
2023/07/23 01:55:13;;;;;;;5.45;3.70;;;25.00;44.50;;;;;;5038051;28;20046;-66
2023/07/23 01:57:38;;;;;;;4.30;2.80;;;25.00;44.50;;;;;;5038510;28;20025;-64
2023/07/23 02:00:05;;;;;;;4.32;3.10;;;25.00;44.50;;;;;;5035175;28;20061;-66
2023/07/23 02:02:31;;;;;;;4.13;3.00;;;25.00;44.50;;;;;;5036757;28;20359;-65
2023/07/23 02:04:56;;;;;;;4.80;3.05;;;25.00;44.50;;;;;;5038277;28;20032;-66
2023/07/23 02:07:22;;;;;;;5.03;3.30;;;25.00;44.50;;;;;;5038878;28;20346;-66
2023/07/23 02:09:51;;;;;;;4.93;3.10;;;25.00;45.00;;;;;;5037845;28;20052;-65
2023/07/23 02:12:17;;;;;;;;;;;25.00;44.50;;;;;;5038407;28;20029;-66
2023/07/23 02:14:43;;;;;;;4.20;3.00;;;25.00;44.50;;;;;;5036960;28;20387;-66
2023/07/23 02:17:09;;;;;;;4.68;3.28;;;25.00;44.50;;;;;;5050151;28;20110;-65
2023/07/23 02:19:36;;;;;;;4.97;3.35;;;25.00;44.50;;;;;;5038786;28;20032;-66
2023/07/23 02:22:02;;;;;;;4.60;3.00;;;25.00;44.50;;;;;;5039883;28;20021;-66
2023/07/23 02:24:28;;;;;;;4.63;3.00;;;25.00;44.60;;;;;;5039382;28;20032;-65
2023/07/23 02:26:53;;;;;;;4.28;2.78;;;25.00;44.50;;;;;;5036358;28;20397;-66
2023/07/23 02:29:19;;;;;;;4.20;2.85;;;24.90;44.50;;;;;;5037278;28;20501;-66
2023/07/23 02:31:44;;;;;;;4.32;2.90;;;24.90;44.50;;;;;;5038872;28;20433;-65
2023/07/23 02:34:10;;;;;;;4.15;2.90;;;24.90;44.50;;;;;;5038576;28;20033;-65
2023/07/23 02:36:36;;;;;;;4.00;2.90;;;24.90;44.50;;;;;;5039689;28;20044;-65
2023/07/23 02:39:02;;;;;;;5.38;3.40;;;24.90;44.60;;;;;;5039186;28;20389;-65
2023/07/23 02:41:28;;;;;;;3.60;2.50;;;24.90;44.50;;;;;;5040833;28;20030;-65
2023/07/23 02:43:54;;;;;;;5.72;2.90;;;24.90;44.50;;;;;;5037327;28;20037;-65
2023/07/23 02:46:20;;;;;;;3.83;2.70;;;24.90;44.60;;;;;;5039106;28;20063;-65
2023/07/23 02:48:45;;;;;;;3.67;2.50;;;24.90;45.10;;;;;;5037072;28;20084;-66
2023/07/23 02:51:11;;;;;;;3.50;2.47;;;24.90;44.60;;;;;;5035284;28;20040;-66
2023/07/23 02:53:37;;;;;;;4.18;3.00;;;24.90;44.60;;;;;;5052789;28;20446;-65
2023/07/23 02:56:02;;;;;;;4.07;2.85;;;24.90;44.60;;;;;;5039799;28;20033;-66
2023/07/23 02:58:28;;;;;;;4.88;2.80;;;24.90;44.50;;;;;;5036604;28;20049;-65
2023/07/23 03:00:57;;;;;;;4.05;2.65;;;24.90;44.60;;;;;;5041192;28;20037;-66
2023/07/23 03:03:23;;;;;;;3.75;2.58;;;24.90;44.60;;;;;;5041983;28;20396;-65
2023/07/23 03:05:49;;;;;;;3.65;2.70;;;24.90;44.60;;;;;;5042536;28;20028;-66
2023/07/23 03:08:15;;;;;;;3.80;2.78;;;24.90;44.60;;;;;;5041207;28;20044;-65
2023/07/23 03:10:41;;;;;;;3.80;2.63;;;24.90;44.60;;;;;;5041530;28;20051;-65
2023/07/23 03:13:07;;;;;;;3.63;2.80;;;24.90;44.60;;;;;;5042297;28;20083;-66
2023/07/23 03:15:34;;;;;;;4.40;2.55;;;24.90;44.60;;;;;;5040160;28;20025;-66
2023/07/23 03:18:00;;;;;;;3.90;2.72;;;24.90;44.60;;;;;;5040969;28;20694;-66
2023/07/23 03:20:26;;;;;;;3.80;2.60;;;24.90;44.60;;;;;;5040989;28;20029;-65
2023/07/23 03:22:51;;;;;;;4.50;2.70;;;24.80;44.50;;;;;;5038576;28;20033;-66
2023/07/23 03:25:17;;;;;;;4.00;2.50;;;24.80;44.50;;;;;;5038873;28;20017;-66
2023/07/23 03:27:43;;;;;;;3.80;2.60;;;24.80;44.60;;;;;;5040882;28;20041;-64
2023/07/23 03:30:09;;;;;;;3.63;2.60;;;24.80;44.50;;;;;;5039883;28;20128;-66
2023/07/23 03:32:35;;;;;;;4.03;2.50;;;24.80;44.50;;;;;;5039994;28;20033;-66
2023/07/23 03:35:01;;;;;;;3.42;2.50;;;24.80;44.50;;;;;;5038854;28;20033;-64
2023/07/23 03:37:27;;;;;;;4.05;2.75;;;24.80;44.50;;;;;;5040098;28;20022;-66
2023/07/23 03:39:52;;;;;;;3.50;2.53;;;24.80;44.50;;;;;;5042531;28;20603;-65
2023/07/23 03:42:18;;;;;;;3.60;2.67;;;24.80;44.60;;;;;;5040098;28;20511;-66
2023/07/23 03:44:44;;;;;;;4.07;2.47;;;24.90;44.60;;;;;;5041080;28;20136;-66
2023/07/23 03:47:11;;;;;;;3.60;2.53;;;24.90;44.60;;;;;;5040066;28;20025;-66
2023/07/23 03:49:37;;;;;;;3.40;2.33;;;24.80;44.60;;;;;;5041163;28;20029;-66
2023/07/23 03:52:04;;;;;;;3.67;2.50;;;24.80;44.60;;;;;;5041451;28;20025;-66
2023/07/23 03:54:30;;;;;;;4.82;2.60;;;24.80;44.60;;;;;;5037309;28;20042;-65
2023/07/23 03:56:56;;;;;;;3.70;2.42;;;24.80;44.60;;;;;;5040663;28;20473;-66
2023/07/23 03:59:21;;;;;;;3.63;2.55;;;24.80;44.60;;;;;;5037191;28;20036;-64
2023/07/23 04:01:47;;;;;;;4.03;2.70;;;24.80;44.60;;;;;;5040079;28;20029;-66
2023/07/23 04:04:12;;;;;;;3.47;2.40;;;24.80;44.60;;;;;;5040480;28;20033;-66
2023/07/23 04:06:38;;;;;;;3.85;2.42;;;24.80;44.60;;;;;;5039033;28;20051;-66
2023/07/23 04:09:04;;;;;;;3.72;2.60;;;24.80;44.60;;;;;;5040236;28;20029;-65
2023/07/23 04:11:29;;;;;;;3.88;2.50;;;24.80;44.60;;;;;;5038811;28;20037;-66
2023/07/23 04:13:55;;;;;;;4.15;2.60;;;24.80;44.60;;;;;;5036396;28;20477;-67
2023/07/23 04:16:20;;;;;;;3.17;2.30;;;24.80;44.60;;;;;;5038459;28;20033;-65
2023/07/23 04:18:51;;;;;;;3.60;2.55;;;24.80;44.60;;;;;;5039914;28;20051;-65
2023/07/23 04:21:26;;;;;;;3.38;2.40;;;24.80;44.60;;;;;;5038655;28;20429;-66
2023/07/23 04:23:55;;;;;;;2.90;2.10;;;24.80;45.10;;;;;;5039850;28;20029;-65
2023/07/23 04:26:21;;;;;;;3.85;2.60;;;24.80;44.60;;;;;;5039395;28;20464;-66
2023/07/23 04:28:47;;;;;;;3.63;2.38;;;24.80;44.60;;;;;;5040358;28;20588;-65
2023/07/23 04:31:13;;;;;;;4.43;2.55;;;24.80;45.20;;;;;;5038051;28;20049;-65
2023/07/23 04:33:39;;;;;;;3.20;2.15;;;24.80;44.60;;;;;;5038481;28;20025;-66
2023/07/23 04:36:07;;;;;;;3.53;2.38;;;24.80;44.60;;;;;;5037673;28;20112;-65
2023/07/23 04:38:33;;;;;;;2.95;2.10;;;24.80;44.60;;;;;;5040443;28;20532;-66
2023/07/23 04:40:58;;;;;;;3.15;2.00;;;24.80;44.60;;;;;;5039959;28;20100;-66
2023/07/23 04:43:24;;;;;;;3.47;2.38;;;24.70;44.60;;;;;;5039550;28;20132;-64
2023/07/23 04:45:49;;;;;;;3.13;2.20;;;24.70;44.60;;;;;;5035685;28;20033;-65
2023/07/23 04:48:16;;;;;;;2.92;2.03;;;24.70;44.60;;;;;;5039754;28;20536;-65
2023/07/23 04:50:42;;;;;;;3.67;2.40;;;24.70;44.60;;;;;;5039840;28;20124;-64
2023/07/23 04:53:08;;;;;;;3.47;2.10;;;24.70;45.10;;;;;;5039794;28;20524;-65
2023/07/23 04:55:34;;;;;;;2.88;2.00;;;24.70;44.70;;;;;;5038762;28;20033;-64
2023/07/23 04:58:00;;;;;;;3.33;2.33;;;24.70;44.60;;;;;;5037874;28;20033;-65
2023/07/23 05:00:27;;;;;;;3.42;2.17;;;24.70;44.60;;;;;;5037736;28;20096;-65
2023/07/23 05:02:53;;;;;;;5.88;3.70;;;24.70;45.20;;;;;;5038376;28;20043;-65
2023/07/23 05:05:19;;;;;;;4.25;2.97;;;24.80;44.40;;;;;;5040243;28;20029;-65
2023/07/23 05:07:44;;;;;;;4.63;2.67;;;24.80;44.10;;;;;;5039118;28;20512;-65
2023/07/23 05:10:10;;;;;;;3.95;2.78;;;24.80;43.80;;;;;;5040270;28;20121;-64
2023/07/23 05:12:36;;;;;;;4.05;2.50;;;24.80;43.60;;;;;;5038232;28;20366;-64
2023/07/23 05:15:10;;;;;;;3.47;2.45;;;24.80;43.50;;;;;;5034436;28;20121;-64
2023/07/23 05:17:36;;;;;;;3.30;2.30;;;24.70;44.00;;;;;;5037637;28;20029;-65
2023/07/23 05:20:02;;;;;;;4.18;2.40;;;24.70;43.50;;;;;;5039298;28;20108;-65
2023/07/23 05:22:28;;;;;;;4.45;2.50;;;24.70;43.60;;;;;;5038422;28;20025;-65
2023/07/23 05:24:53;;;;;;;3.33;2.30;;;24.70;43.70;;;;;;5038783;28;20810;-66
2023/07/23 05:27:19;;;;;;;3.45;2.42;;;24.70;43.80;;;;;;5037852;28;20029;-65
2023/07/23 05:29:44;;;;;;;4.22;2.28;;;24.70;43.90;;;;;;5036180;28;20120;-66
2023/07/23 05:32:10;;;;;;;4.32;2.40;;;24.70;44.10;;;;;;5038490;28;20037;-66
2023/07/23 05:34:35;;;;;;;3.50;2.88;;;24.70;44.30;;;;;;5036891;28;20115;-66
2023/07/23 05:37:01;;;;;;;3.10;2.33;;;24.70;44.50;;;;;;5038605;28;20041;-65
2023/07/23 05:39:27;;;;;;;3.55;2.40;;;24.60;44.60;;;;;;5039161;28;20599;-65
2023/07/23 05:41:52;;;;;;;3.60;2.55;;;24.60;44.80;;;;;;5039361;28;20037;-65
2023/07/23 05:44:18;;;;;;;4.07;2.40;;;24.60;45.00;;;;;;5038404;28;20044;-66
2023/07/23 05:46:43;;;;;;;3.40;2.30;;;24.60;45.10;;;;;;5035526;28;20115;-63
2023/07/23 05:49:09;;;;;;;4.07;2.22;;;24.60;45.30;;;;;;5038207;28;20543;-63
2023/07/23 05:51:34;;;;;;;3.53;2.45;;;24.50;45.40;;;;;;5039680;28;20029;-63
2023/07/23 05:54:00;;;;;;;3.13;2.30;;;24.60;45.60;;;;;;5038693;28;20041;-63
2023/07/23 05:56:26;;;;;;;3.58;2.45;;;24.50;45.60;;;;;;5038310;28;20091;-62
2023/07/23 05:58:52;;;;;;;3.90;2.45;;;24.50;45.70;;;;;;5038524;28;20025;-63
2023/07/23 06:01:18;;;;;;;3.60;2.47;;;24.50;45.70;;;;;;5037235;28;20425;-64
2023/07/23 06:03:43;;;;;;;3.95;2.58;;;24.50;45.70;;;;;;5037735;28;20669;-63
2023/07/23 06:06:09;;;;;;;3.60;2.70;;;24.50;45.90;;;;;;5038207;28;20029;-63
2023/07/23 06:08:34;;;;;;;3.90;2.60;;;24.40;45.90;;;;;;5036780;28;20026;-63
2023/07/23 06:11:00;;;;;;;3.75;2.47;;;24.50;46.00;;;;;;5038068;28;20128;-63
2023/07/23 06:13:25;;;;;;;3.63;2.50;;;24.40;46.10;;;;;;5038103;28;20512;-63
2023/07/23 06:15:51;;;;;;;3.97;2.40;;;24.40;46.10;;;;;;5036264;28;20032;-63
2023/07/23 06:18:17;;;;;;;3.10;2.08;;;24.40;46.20;;;;;;5039300;28;20541;-63
2023/07/23 06:20:42;;;;;;;5.53;2.70;;;24.40;46.20;;;;;;5038877;28;20018;-63
2023/07/23 06:23:08;;;;;;;3.83;2.25;;;24.40;46.30;;;;;;5038458;28;20517;-63
2023/07/23 06:25:34;;;;;;;3.78;2.25;;;24.40;46.30;;;;;;5037089;28;20494;-63
2023/07/23 06:27:59;;;;;;;3.70;2.60;;;24.40;46.50;;;;;;5036381;28;20041;-62
2023/07/23 06:30:25;;;;;;;3.10;2.20;;;24.40;46.60;;;;;;5040854;28;20474;-63
2023/07/23 06:32:50;;;;;;;3.42;2.33;;;24.40;46.60;;;;;;5041689;28;20482;-63
2023/07/23 06:35:16;;;;;;;4.53;2.78;;;24.30;46.60;;;;;;5043513;28;20029;-63
2023/07/23 06:37:42;;;;;;;3.60;2.45;;;24.30;46.60;;;;;;5056287;28;20511;-63
2023/07/23 06:40:08;;;;;;;3.80;2.50;;;24.30;46.70;;;;;;5042763;28;20029;-63
2023/07/23 06:42:34;;;;;;;3.95;2.42;;;24.30;47.30;;;;;;5041576;28;20025;-60
2023/07/23 06:44:59;;;;;;;3.88;2.35;;;24.30;46.90;;;;;;5040398;28;20029;-60
2023/07/23 06:47:25;;;;;;;3.67;2.47;;;24.20;46.90;;;;;;5040451;28;20658;-60
2023/07/23 06:49:51;;;;;;;4.28;2.47;;;24.20;47.20;;;;;;5039211;28;20025;-60
2023/07/23 06:52:16;;;;;;;3.92;2.92;;;24.20;47.20;;;;;;5043929;28;20365;-60
2023/07/23 06:54:42;;;;;;;3.60;2.30;;;24.20;47.20;;;;;;5041448;28;20137;-60
2023/07/23 06:57:08;;;;;;;3.28;2.17;;;24.20;47.20;;;;;;5041307;28;20032;-60
2023/07/23 06:59:34;;;;;;;2.97;2.20;;;24.10;47.50;;;;;;5040026;28;20028;-60
2023/07/23 07:02:00;;;;;;;3.28;2.20;;;24.10;47.40;;;;;;5038981;28;20021;-60
2023/07/23 07:04:26;;;;;;;3.83;2.63;;;24.10;47.70;;;;;;5041872;28;20030;-59
2023/07/23 07:06:52;;;;;;;3.15;2.22;;;24.10;47.80;;;;;;5039992;28;20032;-59
2023/07/23 07:09:17;;;;;;;2.80;2.00;;;24.10;47.70;;;;;;5039637;28;20043;-60
2023/07/23 07:11:43;;;;;;;3.67;2.00;;;24.10;47.70;;;;;;5040274;28;20037;-60
2023/07/23 07:14:08;;;;;;;3.15;1.70;;;24.10;47.70;;;;;;5040935;28;20044;-60
2023/07/23 07:16:34;;;;;;;2.97;1.90;;;24.10;47.70;;;;;;5040678;28;20037;-60
2023/07/23 07:19:00;;;;;;;2.53;1.90;;;24.10;47.60;;;;;;5040625;28;20032;-59
2023/07/23 07:21:25;;;;;;;2.90;1.88;;;24.10;47.60;;;;;;5041866;28;20027;-60
2023/07/23 07:23:51;;;;;;;2.60;1.80;;;24.10;47.50;;;;;;5041104;28;20124;-60
2023/07/23 07:26:16;;;;;;;2.60;1.70;;;24.10;47.50;;;;;;5038995;28;20493;-60
2023/07/23 07:28:42;;;;;;;2.50;1.80;;;24.10;47.40;;;;;;5041439;28;20045;-60
2023/07/23 07:31:10;;;;;;;2.70;1.63;;;24.10;47.40;;;;;;5052594;28;20608;-59
2023/07/23 07:33:37;;;;;;;2.85;1.98;;;24.10;47.30;;;;;;5039594;28;20160;-60
2023/07/23 07:36:02;;;;;;;3.08;1.80;;;24.10;47.20;;;;;;5037741;28;20028;-59
2023/07/23 07:38:28;;;;;;;2.45;1.77;;;24.10;47.20;;;;;;5037254;28;20044;-60
2023/07/23 07:40:57;;;;;;;2.60;1.88;;;24.10;47.20;;;;;;5039406;28;20102;-60
2023/07/23 07:43:24;;;;;;;2.60;1.83;;;24.10;47.10;;;;;;5038789;28;20112;-60
2023/07/23 07:45:54;;;;;;;2.65;1.67;;;24.10;47.10;;;;;;5036364;28;20025;-60
2023/07/23 07:48:20;;;;;;;2.40;1.70;;;24.10;47.00;;;;;;5039405;28;20021;-59
2023/07/23 07:50:48;;;;;;;2.50;1.70;;;24.10;47.00;;;;;;5040862;28;20833;-59
2023/07/23 07:53:15;;;;;;;2.75;1.70;;;24.10;47.00;;;;;;5038924;28;20013;-59
2023/07/23 07:55:42;;;;;;;2.55;1.85;;;24.10;47.00;;;;;;5039776;28;20037;-59
2023/07/23 07:58:13;;;;;;;2.92;1.80;;;24.10;47.00;;;;;;5040677;28;20115;-59
2023/07/23 08:00:40;;;;;;;3.08;1.60;;;24.10;46.90;;;;;;5038846;28;20104;-60
2023/07/23 08:03:06;;;;;;;2.20;1.63;;;24.10;46.90;;;;;;5039893;28;20025;-60
2023/07/23 08:05:32;;;;;;;2.60;1.80;;;24.10;46.80;;;;;;5040453;28;20389;-59
2023/07/23 08:07:59;;;;;;;3.30;1.98;;;24.10;46.80;;;;;;5040233;28;20037;-60
2023/07/23 08:10:25;;;;;;;2.80;1.70;;;24.10;46.80;;;;;;5038091;28;20500;-59
2023/07/23 08:12:52;;;;;;;2.70;1.75;;;24.10;46.70;;;;;;5039893;28;20030;-60
2023/07/23 08:15:18;;;;;;;2.20;1.60;;;24.10;46.70;;;;;;5041038;28;20428;-60
2023/07/23 08:17:44;;;;;;;3.08;1.80;;;24.10;46.70;;;;;;5037832;28;20021;-60
2023/07/23 08:20:10;;;;;;;3.13;1.88;;;24.10;46.70;;;;;;5038751;28;20099;-59
2023/07/23 08:22:36;;;;;;;2.20;1.73;;;24.10;46.70;;;;;;5040203;28;20021;-60
2023/07/23 08:25:02;;;;;;;2.50;1.80;;;24.10;46.60;;;;;;5039999;28;20047;-59
2023/07/23 08:27:29;;;;;;;2.22;1.63;;;24.10;46.60;;;;;;5039276;28;20038;-60
2023/07/23 08:29:57;;;;;;;2.85;1.67;;;24.10;46.60;;;;;;5039312;28;20029;-59
2023/07/23 08:32:24;;;;;;;2.33;1.60;;;24.10;46.60;;;;;;5039596;28;20028;-60
2023/07/23 08:34:50;;;;;;;2.60;1.75;;;24.10;46.60;;;;;;5039701;28;20397;-60
2023/07/23 08:37:16;;;;;;;2.13;1.60;;;24.10;46.50;;;;;;5038646;28;20029;-59
2023/07/23 08:39:42;;;;;;;2.38;1.60;;;24.10;46.60;;;;;;5038180;28;20140;-60
2023/07/23 08:42:46;;;;;;;2.20;1.58;;;24.10;46.50;;;;;;5040095;28;20444;-60
2023/07/23 08:45:30;;;;;;;1.98;1.42;;;24.10;46.50;;;;;;5041368;28;20048;-60
2023/07/23 08:48:17;;;;;;;2.22;1.60;;;24.10;46.50;;;;;;5038166;28;20473;-60
2023/07/23 08:50:47;;;;;;;2.33;1.52;;;24.10;46.50;;;;;;5037251;28;20117;-59
2023/07/23 08:53:14;;;;;;;2.28;1.70;;;24.10;46.40;;;;;;5039253;28;20041;-60
2023/07/23 08:55:43;;;;;;;2.60;1.80;;;24.10;46.40;;;;;;5040016;28;20043;-60
2023/07/23 08:58:16;;;;;;;2.33;1.60;;;24.20;47.00;;;;;;5038240;28;20033;-63
2023/07/23 09:00:43;;;;;;;2.03;1.45;;;24.10;46.40;;;;;;5039677;28;20033;-63
2023/07/23 09:03:10;;;;;;;2.60;1.80;;;24.20;46.50;;;;;;5036821;28;20028;-62
2023/07/23 09:05:37;;;;;;;2.40;1.50;;;24.20;46.40;;;;;;5039154;28;20036;-64
2023/07/23 09:08:03;;;;;;;2.05;1.40;;;24.20;46.40;;;;;;5039073;28;20425;-63
2023/07/23 09:10:28;;;;;;;2.70;1.80;;;24.20;46.40;;;;;;5038313;28;20044;-63
2023/07/23 09:12:54;;;;;;;2.00;1.33;;;24.20;46.40;;;;;;5039070;28;20038;-63
2023/07/23 09:15:19;;;;;;;2.25;1.50;;;24.10;46.40;;;;;;5040399;28;20481;-63
2023/07/23 09:17:51;;;;;;;2.80;1.40;;;24.20;46.40;;;;;;5036049;28;20055;-62
2023/07/23 09:20:18;;;;;;;2.20;1.38;;;24.10;46.30;;;;;;5038596;28;20028;-63
2023/07/23 09:22:45;;;;;;;2.03;1.40;;;24.20;46.40;;;;;;5037974;28;20028;-64
2023/07/23 09:25:10;;;;;;;1.92;1.40;;;24.20;46.30;;;;;;5037706;28;20025;-63
2023/07/23 09:27:36;;;;;;;1.75;1.25;;;24.20;46.30;;;;;;5039685;28;20036;-63
2023/07/23 09:30:03;;;;;;;1.90;1.40;;;24.20;46.30;;;;;;5040110;28;20033;-63
2023/07/23 09:32:29;;;;;;;2.10;1.40;;;24.20;46.30;;;;;;5037526;28;20033;-63
2023/07/23 09:34:57;;;;;;;1.98;1.40;;;24.20;46.30;;;;;;5039730;28;20075;-63
2023/07/23 09:37:23;;;;;;;2.20;1.52;;;24.20;46.30;;;;;;5038891;28;20029;-63
2023/07/23 09:39:48;;;;;;;2.08;1.50;;;24.20;46.30;;;;;;5039391;28;20131;-63
2023/07/23 09:42:14;;;;;;;2.13;1.52;;;24.20;46.30;;;;;;5042551;28;20557;-63
2023/07/23 09:44:41;;;;;;;2.10;1.40;;;24.20;46.50;;;;;;5039333;28;20028;-63
2023/07/23 09:47:07;;;;;;;2.10;1.50;;;24.20;46.30;;;;;;5036617;28;20060;-63
2023/07/23 09:49:33;;;;;;;1.83;1.27;;;24.20;46.30;;;;;;5038913;28;20449;-63
2023/07/23 09:52:06;;;;;;;2.13;1.55;;;24.20;46.80;;;;;;5035762;28;20032;-63
2023/07/23 09:54:33;;;;;;;2.28;1.40;;;24.20;46.30;;;;;;5038158;28;20037;-64
2023/07/23 09:56:59;;;;;;;1.88;1.33;;;24.20;46.30;;;;;;5037438;28;20037;-63
2023/07/23 09:59:25;;;;;;;1.90;1.30;;;24.20;46.30;;;;;;5038405;28;20037;-63
2023/07/23 10:01:51;;;;;;;1.70;1.30;;;24.20;46.40;;;;;;5035820;28;20056;-65
2023/07/23 10:04:18;;;;;;;1.73;1.20;;;24.20;46.40;;;;;;5037311;28;20373;-65
2023/07/23 10:06:46;;;;;;;2.20;1.20;;;24.20;46.50;;;;;;5037857;28;20366;-66
2023/07/23 10:09:13;;;;;;;1.63;1.15;;;24.20;46.50;;;;;;5038267;28;20418;-66
2023/07/23 10:11:39;;;;;;;1.90;1.40;;;24.20;46.50;;;;;;5038085;28;20033;-67
2023/07/23 10:14:05;;;;;;;1.80;1.20;;;24.20;46.50;;;;;;5038420;28;20108;-66
2023/07/23 10:16:37;;;;;;;2.10;1.35;;;24.30;46.60;;;;;;5034441;28;20053;-66
2023/07/23 10:19:07;;;;;;;2.00;1.40;;;24.30;46.60;;;;;;5036712;28;20419;-66
2023/07/23 10:21:33;;;;;;;;;;;24.30;46.60;;;;;;5038528;28;20060;-67
2023/07/23 10:23:59;;;;;;;1.80;1.30;;;24.20;46.60;;;;;;5038646;28;19912;-67
2023/07/23 10:50:12;;;;;;;2.13;1.35;;;24.00;47.10;;;;;;5070503;28;20650;-66
2023/07/23 10:52:38;;;;;;;2.03;1.40;;;24.00;47.40;;;;;;5051438;28;20867;-65
2023/07/23 10:55:05;;;;;;;2.05;1.20;;;24.00;48.00;;;;;;5053545;28;20087;-63
2023/07/23 10:57:31;;;;;;;2.45;1.40;;;24.00;48.50;;;;;;5054126;28;20033;-64
2023/07/23 10:59:56;;;;;;;2.40;1.60;;;24.10;48.60;;;;;;5053605;28;20103;-65
2023/07/23 11:02:26;;;;;;;2.67;1.70;;;24.10;48.90;;;;;;5052101;28;20453;-67
2023/07/23 11:04:56;;;;;;;2.42;1.58;;;24.20;48.70;;;;;;5053633;28;20032;-67
2023/07/23 11:07:27;;;;;;;2.38;1.77;;;24.30;48.70;;;;;;5054417;28;20118;-66
2023/07/23 11:09:54;;;;;;;2.92;1.67;;;24.30;48.30;;;;;;5053155;28;20456;-66
2023/07/23 11:12:24;;;;;;;2.40;1.70;;;24.40;48.70;;;;;;5056731;28;20021;-67
2023/07/23 11:14:51;;;;;;;3.97;1.75;;;24.40;48.00;;;;;;5055058;28;20029;-65
2023/07/23 11:17:17;;;;;;;1.63;1.30;;;24.50;48.00;;;;;;5053095;28;20052;-64
2023/07/23 11:19:46;;;;;;;2.58;1.30;;;24.50;48.00;;;;;;5054702;28;20046;-64
2023/07/23 11:22:15;;;;;;;1.80;1.30;;;24.50;47.80;;;;;;5053371;28;20472;-65
2023/07/23 11:24:40;;;;;;;;;;;24.50;47.70;;;;;;5054430;28;20120;-64
2023/07/23 11:27:06;;;;;;;1.70;1.20;;;24.50;47.60;;;;;;5053759;28;19991;-64
2023/07/23 11:29:32;;;;;;;2.00;1.20;;;24.50;47.60;;;;;;5054665;28;20449;-64
2023/07/23 11:31:59;;;;;;;1.50;1.10;;;24.50;47.50;;;;;;5054109;28;20515;-64
2023/07/23 11:34:25;;;;;;;2.58;1.30;;;24.50;47.50;;;;;;5052600;28;20025;-64
2023/07/23 11:36:55;;;;;;;1.83;1.30;;;24.50;47.50;;;;;;5059974;28;20083;-65
2023/07/23 11:39:24;;;;;;;2.08;1.30;;;24.50;47.40;;;;;;5055547;28;20025;-64
2023/07/23 11:41:50;;;;;;;1.77;1.20;;;24.60;47.50;;;;;;5052818;28;20116;-64
2023/07/23 11:44:15;;;;;;;2.40;1.30;;;24.60;47.50;;;;;;5053095;28;20025;-65
2023/07/23 11:46:41;;;;;;;1.98;1.27;;;24.60;47.30;;;;;;5053693;28;20028;-64
2023/07/23 11:49:09;;;;;;;1.95;1.30;;;24.60;47.40;;;;;;5052282;28;20029;-64
2023/07/23 11:51:37;;;;;;;2.72;1.42;;;24.60;47.20;;;;;;5053170;28;20022;-64
2023/07/23 11:54:07;;;;;;;1.90;1.30;;;24.60;47.20;;;;;;5052665;28;20439;-64
2023/07/23 11:56:40;;;;;;;1.60;1.17;;;24.60;47.10;;;;;;5053363;28;20016;-64
2023/07/23 11:59:08;;;;;;;1.75;1.23;;;24.60;47.10;;;;;;5053775;28;20501;-64
2023/07/23 12:01:38;;;;;;;1.75;1.38;;;24.60;47.10;;;;;;5041420;28;20104;-64
2023/07/23 12:04:05;;;;;;;2.03;1.42;;;24.70;47.10;;;;;;5039802;28;20422;-64
2023/07/23 12:06:33;;;;;;;2.25;1.60;;;24.70;47.10;;;;;;5041161;28;20164;-65
2023/07/23 12:08:59;;;;;;;2.00;1.35;;;24.70;47.00;;;;;;5041356;28;20021;-64
2023/07/23 12:11:29;;;;;;;1.50;1.20;;;24.70;47.00;;;;;;5040637;28;20025;-64
2023/07/23 12:13:56;;;;;;;1.60;1.25;;;24.70;47.00;;;;;;5040704;28;20029;-64
2023/07/23 12:16:46;;;;;;;2.03;1.40;;;24.70;47.00;;;;;;5040673;28;20028;-63
2023/07/23 12:19:21;;;;;;;2.20;1.40;;;24.70;47.00;;;;;;5035972;28;20045;-64
2023/07/23 12:21:52;;;;;;;2.67;1.55;;;24.70;47.00;;;;;;5040567;28;20471;-64
2023/07/23 12:24:26;;;;;;;2.40;1.50;;;24.70;46.90;;;;;;5038736;28;20338;-65
2023/07/23 12:26:53;;;;;;;2.22;1.50;;;24.70;46.90;;;;;;5041183;28;20048;-64
2023/07/23 12:29:20;;;;;;;1.80;1.30;;;24.70;47.40;;;;;;5037020;28;20116;-64
2023/07/23 12:31:49;;;;;;;2.10;1.40;;;24.70;46.90;;;;;;5039575;28;20051;-64
2023/07/23 12:34:15;;;;;;;2.17;1.40;;;24.70;46.90;;;;;;5038966;28;20029;-64
2023/07/23 12:36:42;;;;;;;1.85;1.30;;;24.70;46.90;;;;;;5038744;28;20029;-64
2023/07/23 12:39:10;;;;;;;2.20;1.45;;;24.70;46.90;;;;;;5038158;28;20108;-64
2023/07/23 12:41:36;;;;;;;2.58;1.48;;;24.70;46.80;;;;;;5038397;28;20025;-64
2023/07/23 12:44:03;;;;;;;2.10;1.40;;;24.70;47.40;;;;;;5041309;28;20056;-64
2023/07/23 12:46:29;;;;;;;2.28;1.40;;;24.70;46.80;;;;;;5037865;28;20116;-64
2023/07/23 12:48:54;;;;;;;2.03;1.30;;;24.70;47.40;;;;;;5040569;28;20055;-64
2023/07/23 12:51:22;;;;;;;1.48;1.23;;;24.70;46.80;;;;;;5038051;28;20024;-66
2023/07/23 12:53:47;;;;;;;2.97;1.70;;;24.80;47.00;;;;;;5040089;28;20029;-65
2023/07/23 12:56:14;;;;;;;2.45;1.83;;;24.80;47.00;;;;;;5039929;28;20021;-67
2023/07/23 12:58:40;;;;;;;3.03;1.90;;;24.80;47.00;;;;;;5037617;28;20033;-67
2023/07/23 13:01:06;;;;;;;2.58;1.80;;;24.90;46.90;;;;;;5038443;28;20469;-65
2023/07/23 13:03:33;;;;;;;2.92;1.90;;;24.90;46.70;;;;;;5036994;28;20600;-66
2023/07/23 13:05:59;;;;;;;3.40;1.70;;;25.00;46.70;;;;;;5037681;28;20445;-64
2023/07/23 13:08:25;;;;;;;2.05;1.55;;;25.00;46.90;;;;;;5038510;28;20485;-66